sensor_id;sensor_type;location;lat;lon;timestamp;pressure;altitude;pressure_sealevel;temperature;humidity
25944;BME280;13742;49.306;8.636;2023-02-21T00:00:38;101054.28;;;6.54;80.00
25944;BME280;13742;49.306;8.636;2023-02-21T00:01:38;101049.55;;;6.52;79.75
25944;BME280;13742;49.306;8.636;2023-02-21T00:02:38;101054.48;;;6.52;79.39
25944;BME280;13742;49.306;8.636;2023-02-21T00:03:38;101046.77;;;6.52;79.38
25944;BME280;13742;49.306;8.636;2023-02-21T00:04:38;101046.53;;;6.53;79.70
25944;BME280;13742;49.306;8.636;2023-02-21T00:05:38;101044.50;;;6.54;79.79
25944;BME280;13742;49.306;8.636;2023-02-21T00:06:38;101048.27;;;6.55;79.73
25944;BME280;13742;49.306;8.636;2023-02-21T00:07:38;101046.33;;;6.56;79.98
25944;BME280;13742;49.306;8.636;2023-02-21T00:08:38;101050.58;;;6.54;80.31
25944;BME280;13742;49.306;8.636;2023-02-21T00:09:38;101048.20;;;6.54;80.27
25944;BME280;13742;49.306;8.636;2023-02-21T00:10:38;101049.92;;;6.51;79.61
25944;BME280;13742;49.306;8.636;2023-02-21T00:11:41;101052.05;;;6.50;80.01
25944;BME280;13742;49.306;8.636;2023-02-21T00:12:38;101051.03;;;6.49;79.66
25944;BME280;13742;49.306;8.636;2023-02-21T00:13:38;101052.13;;;6.47;79.40
25944;BME280;13742;49.306;8.636;2023-02-21T00:14:38;101052.13;;;6.47;79.68
25944;BME280;13742;49.306;8.636;2023-02-21T00:15:38;101052.46;;;6.47;79.69
25944;BME280;13742;49.306;8.636;2023-02-21T00:16:38;101051.27;;;6.45;79.41
25944;BME280;13742;49.306;8.636;2023-02-21T00:17:38;101047.88;;;6.42;79.12
25944;BME280;13742;49.306;8.636;2023-02-21T00:18:38;101045.48;;;6.41;78.89
25944;BME280;13742;49.306;8.636;2023-02-21T00:19:38;101043.25;;;6.39;78.82
25944;BME280;13742;49.306;8.636;2023-02-21T00:20:38;101041.19;;;6.40;78.75
25944;BME280;13742;49.306;8.636;2023-02-21T00:21:38;101041.72;;;6.40;78.71
25944;BME280;13742;49.306;8.636;2023-02-21T00:22:38;101042.98;;;6.41;78.83
25944;BME280;13742;49.306;8.636;2023-02-21T00:23:38;101044.45;;;6.43;79.29
25944;BME280;13742;49.306;8.636;2023-02-21T00:24:38;101046.41;;;6.42;79.10
25944;BME280;13742;49.306;8.636;2023-02-21T00:25:38;101044.28;;;6.41;79.18
25944;BME280;13742;49.306;8.636;2023-02-21T00:26:38;101045.19;;;6.39;78.88
25944;BME280;13742;49.306;8.636;2023-02-21T00:27:38;101044.02;;;6.40;79.40
25944;BME280;13742;49.306;8.636;2023-02-21T00:28:38;101043.09;;;6.39;79.32
25944;BME280;13742;49.306;8.636;2023-02-21T00:29:38;101041.26;;;6.36;78.98
25944;BME280;13742;49.306;8.636;2023-02-21T00:30:38;101040.92;;;6.34;78.88
25944;BME280;13742;49.306;8.636;2023-02-21T00:31:38;101038.67;;;6.36;79.33
25944;BME280;13742;49.306;8.636;2023-02-21T00:32:38;101035.50;;;6.34;78.85
25944;BME280;13742;49.306;8.636;2023-02-21T00:33:38;101035.63;;;6.35;79.01
25944;BME280;13742;49.306;8.636;2023-02-21T00:34:38;101041.16;;;6.35;79.56
25944;BME280;13742;49.306;8.636;2023-02-21T00:35:38;101037.13;;;6.26;80.24
25944;BME280;13742;49.306;8.636;2023-02-21T00:36:38;101038.64;;;6.21;80.45
25944;BME280;13742;49.306;8.636;2023-02-21T00:37:38;101043.53;;;6.10;80.96
25944;BME280;13742;49.306;8.636;2023-02-21T00:38:38;101044.29;;;6.16;80.48
25944;BME280;13742;49.306;8.636;2023-02-21T00:39:38;101045.70;;;6.16;79.96
25944;BME280;13742;49.306;8.636;2023-02-21T00:40:38;101044.94;;;6.14;79.81
25944;BME280;13742;49.306;8.636;2023-02-21T00:41:38;101041.55;;;6.13;79.60
25944;BME280;13742;49.306;8.636;2023-02-21T00:42:38;101041.23;;;6.12;79.47
25944;BME280;13742;49.306;8.636;2023-02-21T00:43:38;101040.72;;;6.14;79.57
25944;BME280;13742;49.306;8.636;2023-02-21T00:44:38;101041.57;;;6.15;80.04
25944;BME280;13742;49.306;8.636;2023-02-21T00:45:38;101038.06;;;6.13;80.03
25944;BME280;13742;49.306;8.636;2023-02-21T00:46:38;101039.22;;;6.13;80.51
25944;BME280;13742;49.306;8.636;2023-02-21T00:47:38;101036.06;;;6.13;80.64
25944;BME280;13742;49.306;8.636;2023-02-21T00:48:38;101033.42;;;6.11;80.92
25944;BME280;13742;49.306;8.636;2023-02-21T00:49:38;101031.25;;;6.12;80.55
25944;BME280;13742;49.306;8.636;2023-02-21T00:50:38;101029.78;;;6.11;80.41
25944;BME280;13742;49.306;8.636;2023-02-21T00:51:38;101031.94;;;6.12;80.63
25944;BME280;13742;49.306;8.636;2023-02-21T00:52:38;101029.87;;;6.11;80.30
25944;BME280;13742;49.306;8.636;2023-02-21T00:53:38;101029.27;;;6.10;80.31
25944;BME280;13742;49.306;8.636;2023-02-21T00:54:38;101027.66;;;6.11;80.53
25944;BME280;13742;49.306;8.636;2023-02-21T00:55:38;101025.56;;;6.11;80.45
25944;BME280;13742;49.306;8.636;2023-02-21T00:56:38;101027.10;;;6.12;80.49
25944;BME280;13742;49.306;8.636;2023-02-21T00:57:38;101024.21;;;6.11;80.42
25944;BME280;13742;49.306;8.636;2023-02-21T00:58:38;101023.45;;;6.10;80.05
25944;BME280;13742;49.306;8.636;2023-02-21T00:59:38;101023.16;;;6.10;80.14
25944;BME280;13742;49.306;8.636;2023-02-21T01:00:38;101024.80;;;6.10;80.01
25944;BME280;13742;49.306;8.636;2023-02-21T01:01:38;101020.03;;;6.11;80.04
25944;BME280;13742;49.306;8.636;2023-02-21T01:02:38;101019.77;;;6.09;80.55
25944;BME280;13742;49.306;8.636;2023-02-21T01:03:38;101018.63;;;6.09;80.60
25944;BME280;13742;49.306;8.636;2023-02-21T01:04:38;101019.44;;;6.07;80.16
25944;BME280;13742;49.306;8.636;2023-02-21T01:05:38;101019.58;;;6.06;80.80
25944;BME280;13742;49.306;8.636;2023-02-21T01:06:38;101022.05;;;6.05;80.86
25944;BME280;13742;49.306;8.636;2023-02-21T01:07:38;101021.70;;;6.04;80.85
25944;BME280;13742;49.306;8.636;2023-02-21T01:08:45;101021.81;;;6.03;80.80
25944;BME280;13742;49.306;8.636;2023-02-21T01:09:38;101021.17;;;6.02;80.69
25944;BME280;13742;49.306;8.636;2023-02-21T01:10:38;101019.66;;;6.01;80.61
25944;BME280;13742;49.306;8.636;2023-02-21T01:11:38;101018.38;;;6.00;80.68
25944;BME280;13742;49.306;8.636;2023-02-21T01:12:38;101017.89;;;5.99;80.74
25944;BME280;13742;49.306;8.636;2023-02-21T01:13:38;101020.75;;;5.97;80.79
25944;BME280;13742;49.306;8.636;2023-02-21T01:14:38;101017.73;;;5.96;80.66
25944;BME280;13742;49.306;8.636;2023-02-21T01:15:38;101014.80;;;5.92;81.12
25944;BME280;13742;49.306;8.636;2023-02-21T01:16:38;101009.12;;;5.92;80.63
25944;BME280;13742;49.306;8.636;2023-02-21T01:17:38;101012.45;;;5.91;80.66
25944;BME280;13742;49.306;8.636;2023-02-21T01:18:38;101013.94;;;5.90;81.10
25944;BME280;13742;49.306;8.636;2023-02-21T01:19:38;101009.38;;;5.88;80.29
25944;BME280;13742;49.306;8.636;2023-02-21T01:20:38;101009.52;;;5.87;80.27
25944;BME280;13742;49.306;8.636;2023-02-21T01:21:38;101007.84;;;5.87;80.14
25944;BME280;13742;49.306;8.636;2023-02-21T01:22:38;101010.52;;;5.86;79.99
25944;BME280;13742;49.306;8.636;2023-02-21T01:23:38;101009.73;;;5.86;80.32
25944;BME280;13742;49.306;8.636;2023-02-21T01:24:38;101013.91;;;5.86;80.16
25944;BME280;13742;49.306;8.636;2023-02-21T01:25:38;101013.59;;;5.86;80.87
25944;BME280;13742;49.306;8.636;2023-02-21T01:26:38;101015.04;;;5.85;80.62
25944;BME280;13742;49.306;8.636;2023-02-21T01:27:38;101015.33;;;5.82;81.10
25944;BME280;13742;49.306;8.636;2023-02-21T01:28:38;101013.38;;;5.82;81.14
25944;BME280;13742;49.306;8.636;2023-02-21T01:29:38;101013.81;;;5.80;80.48
25944;BME280;13742;49.306;8.636;2023-02-21T01:30:38;101011.64;;;5.79;80.73
25944;BME280;13742;49.306;8.636;2023-02-21T01:31:38;101011.41;;;5.79;80.48
25944;BME280;13742;49.306;8.636;2023-02-21T01:32:38;101012.77;;;5.78;80.64
25944;BME280;13742;49.306;8.636;2023-02-21T01:33:38;101011.34;;;5.77;81.11
25944;BME280;13742;49.306;8.636;2023-02-21T01:34:38;101012.08;;;5.75;80.79
25944;BME280;13742;49.306;8.636;2023-02-21T01:35:38;101011.98;;;5.74;80.66
25944;BME280;13742;49.306;8.636;2023-02-21T01:36:41;101015.37;;;5.75;80.77
25944;BME280;13742;49.306;8.636;2023-02-21T01:37:39;101014.88;;;5.75;80.68
25944;BME280;13742;49.306;8.636;2023-02-21T01:38:38;101014.22;;;5.75;80.75
25944;BME280;13742;49.306;8.636;2023-02-21T01:39:38;101014.23;;;5.74;80.87
25944;BME280;13742;49.306;8.636;2023-02-21T01:40:39;101011.34;;;5.73;81.22
25944;BME280;13742;49.306;8.636;2023-02-21T01:41:38;101011.58;;;5.73;81.05
25944;BME280;13742;49.306;8.636;2023-02-21T01:42:38;101009.77;;;5.73;80.92
25944;BME280;13742;49.306;8.636;2023-02-21T01:43:38;101008.07;;;5.72;80.45
25944;BME280;13742;49.306;8.636;2023-02-21T01:44:39;101007.89;;;5.73;80.74
25944;BME280;13742;49.306;8.636;2023-02-21T01:45:42;101010.32;;;5.72;80.82
25944;BME280;13742;49.306;8.636;2023-02-21T01:46:38;101009.55;;;5.71;80.66
25944;BME280;13742;49.306;8.636;2023-02-21T01:47:38;101011.17;;;5.68;80.65
25944;BME280;13742;49.306;8.636;2023-02-21T01:48:38;101013.05;;;5.68;81.04
25944;BME280;13742;49.306;8.636;2023-02-21T01:49:38;101007.95;;;5.67;80.78
25944;BME280;13742;49.306;8.636;2023-02-21T01:50:38;101009.66;;;5.65;80.55
25944;BME280;13742;49.306;8.636;2023-02-21T01:51:39;101009.79;;;5.64;80.43
25944;BME280;13742;49.306;8.636;2023-02-21T01:52:38;101010.05;;;5.61;80.66
25944;BME280;13742;49.306;8.636;2023-02-21T01:53:38;101009.34;;;5.61;80.63
25944;BME280;13742;49.306;8.636;2023-02-21T01:54:40;101010.18;;;5.60;80.61
25944;BME280;13742;49.306;8.636;2023-02-21T01:55:38;101011.59;;;5.58;80.85
25944;BME280;13742;49.306;8.636;2023-02-21T01:56:38;101011.20;;;5.57;80.56
25944;BME280;13742;49.306;8.636;2023-02-21T01:57:38;101010.94;;;5.55;80.95
25944;BME280;13742;49.306;8.636;2023-02-21T01:58:38;101012.42;;;5.55;80.67
25944;BME280;13742;49.306;8.636;2023-02-21T01:59:38;101013.98;;;5.54;80.75
25944;BME280;13742;49.306;8.636;2023-02-21T02:00:38;101011.11;;;5.55;80.98
25944;BME280;13742;49.306;8.636;2023-02-21T02:02:45;101011.22;;;5.53;80.83
25944;BME280;13742;49.306;8.636;2023-02-21T02:03:38;101013.73;;;5.52;80.72
25944;BME280;13742;49.306;8.636;2023-02-21T02:04:38;101011.98;;;5.51;80.51
25944;BME280;13742;49.306;8.636;2023-02-21T02:05:38;101011.55;;;5.50;80.42
25944;BME280;13742;49.306;8.636;2023-02-21T02:06:38;101012.91;;;5.49;80.33
25944;BME280;13742;49.306;8.636;2023-02-21T02:07:38;101012.48;;;5.51;80.39
25944;BME280;13742;49.306;8.636;2023-02-21T02:08:38;101006.48;;;5.50;80.67
25944;BME280;13742;49.306;8.636;2023-02-21T02:09:38;101007.83;;;5.49;80.42
25944;BME280;13742;49.306;8.636;2023-02-21T02:10:38;101003.70;;;5.49;80.18
25944;BME280;13742;49.306;8.636;2023-02-21T02:12:01;101002.38;;;5.48;80.36
25944;BME280;13742;49.306;8.636;2023-02-21T02:12:41;101001.41;;;5.46;80.20
25944;BME280;13742;49.306;8.636;2023-02-21T02:13:56;101001.13;;;5.46;79.95
25944;BME280;13742;49.306;8.636;2023-02-21T02:15:54;101000.64;;;5.48;81.03
25944;BME280;13742;49.306;8.636;2023-02-21T02:17:39;101002.70;;;5.48;81.37
25944;BME280;13742;49.306;8.636;2023-02-21T02:19:41;101002.72;;;5.46;81.70
25944;BME280;13742;49.306;8.636;2023-02-21T02:23:48;101003.05;;;5.40;81.16
25944;BME280;13742;49.306;8.636;2023-02-21T02:24:36;101000.82;;;5.38;81.14
25944;BME280;13742;49.306;8.636;2023-02-21T02:29:49;100994.55;;;5.36;81.09
25944;BME280;13742;49.306;8.636;2023-02-21T02:31:38;100995.08;;;5.36;80.85
25944;BME280;13742;49.306;8.636;2023-02-21T02:34:35;100987.41;;;5.38;81.18
25944;BME280;13742;49.306;8.636;2023-02-21T02:35:34;100989.73;;;5.38;81.21
25944;BME280;13742;49.306;8.636;2023-02-21T02:36:34;100990.33;;;5.39;81.42
25944;BME280;13742;49.306;8.636;2023-02-21T02:39:42;100989.47;;;5.42;81.61
25944;BME280;13742;49.306;8.636;2023-02-21T02:40:34;100994.44;;;5.41;81.41
25944;BME280;13742;49.306;8.636;2023-02-21T02:44:35;100992.48;;;5.23;82.87
25944;BME280;13742;49.306;8.636;2023-02-21T02:45:38;100989.20;;;5.23;82.89
25944;BME280;13742;49.306;8.636;2023-02-21T02:46:33;100989.77;;;5.24;83.01
25944;BME280;13742;49.306;8.636;2023-02-21T02:47:34;100989.42;;;5.25;82.53
25944;BME280;13742;49.306;8.636;2023-02-21T02:48:34;100988.61;;;5.25;82.38
25944;BME280;13742;49.306;8.636;2023-02-21T02:49:34;100986.92;;;5.25;82.16
25944;BME280;13742;49.306;8.636;2023-02-21T02:50:33;100983.98;;;5.24;81.89
25944;BME280;13742;49.306;8.636;2023-02-21T02:51:33;100981.42;;;5.23;81.58
25944;BME280;13742;49.306;8.636;2023-02-21T02:52:33;100982.77;;;5.24;81.83
25944;BME280;13742;49.306;8.636;2023-02-21T02:53:34;100981.52;;;5.23;81.64
25944;BME280;13742;49.306;8.636;2023-02-21T02:54:33;100985.22;;;5.24;82.09
25944;BME280;13742;49.306;8.636;2023-02-21T02:55:35;100982.32;;;5.20;82.47
25944;BME280;13742;49.306;8.636;2023-02-21T02:56:35;100989.88;;;5.14;83.04
25944;BME280;13742;49.306;8.636;2023-02-21T02:57:40;100989.05;;;5.13;82.73
25944;BME280;13742;49.306;8.636;2023-02-21T02:58:34;100987.69;;;5.14;82.88
25944;BME280;13742;49.306;8.636;2023-02-21T02:59:33;100988.33;;;5.15;82.81
25944;BME280;13742;49.306;8.636;2023-02-21T03:00:33;100988.36;;;5.15;82.91
25944;BME280;13742;49.306;8.636;2023-02-21T03:02:39;100988.02;;;5.13;82.10
25944;BME280;13742;49.306;8.636;2023-02-21T03:04:41;100990.32;;;5.12;82.21
25944;BME280;13742;49.306;8.636;2023-02-21T03:06:53;100991.16;;;5.11;81.86
25944;BME280;13742;49.306;8.636;2023-02-21T03:08:39;100987.89;;;5.11;81.61
25944;BME280;13742;49.306;8.636;2023-02-21T03:11:33;100987.40;;;5.11;81.77
25944;BME280;13742;49.306;8.636;2023-02-21T03:13:36;100998.00;;;5.13;82.30
25944;BME280;13742;49.306;8.636;2023-02-21T03:14:35;100999.73;;;5.13;82.90
25944;BME280;13742;49.306;8.636;2023-02-21T03:17:35;100998.13;;;5.07;82.61
25944;BME280;13742;49.306;8.636;2023-02-21T03:19:34;101000.88;;;5.06;82.60
25944;BME280;13742;49.306;8.636;2023-02-21T03:20:33;101005.31;;;5.04;82.75
25944;BME280;13742;49.306;8.636;2023-02-21T03:22:33;101004.61;;;5.02;82.47
25944;BME280;13742;49.306;8.636;2023-02-21T03:23:33;101001.89;;;5.00;82.26
25944;BME280;13742;49.306;8.636;2023-02-21T03:24:33;101004.34;;;5.00;82.53
25944;BME280;13742;49.306;8.636;2023-02-21T03:25:33;101001.13;;;5.00;82.29
25944;BME280;13742;49.306;8.636;2023-02-21T03:26:34;100998.45;;;5.00;82.65
25944;BME280;13742;49.306;8.636;2023-02-21T03:27:33;100991.94;;;5.01;82.99
25944;BME280;13742;49.306;8.636;2023-02-21T03:28:33;100993.16;;;5.01;82.61
25944;BME280;13742;49.306;8.636;2023-02-21T03:29:33;100988.25;;;5.02;82.58
25944;BME280;13742;49.306;8.636;2023-02-21T03:30:33;100989.88;;;5.02;82.68
25944;BME280;13742;49.306;8.636;2023-02-21T03:31:34;100988.28;;;5.03;83.01
25944;BME280;13742;49.306;8.636;2023-02-21T03:32:34;100991.34;;;5.04;83.33
25944;BME280;13742;49.306;8.636;2023-02-21T03:33:33;100989.59;;;5.05;84.12
25944;BME280;13742;49.306;8.636;2023-02-21T03:34:33;100992.86;;;5.03;83.69
25944;BME280;13742;49.306;8.636;2023-02-21T03:35:33;100990.20;;;5.02;83.76
25944;BME280;13742;49.306;8.636;2023-02-21T03:36:33;100994.80;;;5.02;84.00
25944;BME280;13742;49.306;8.636;2023-02-21T03:37:37;100994.39;;;5.01;83.93
25944;BME280;13742;49.306;8.636;2023-02-21T03:38:33;100995.44;;;4.99;83.57
25944;BME280;13742;49.306;8.636;2023-02-21T03:39:33;100999.84;;;5.00;83.80
25944;BME280;13742;49.306;8.636;2023-02-21T03:40:33;100998.43;;;4.99;83.67
25944;BME280;13742;49.306;8.636;2023-02-21T03:41:33;100994.84;;;4.98;83.77
25944;BME280;13742;49.306;8.636;2023-02-21T03:42:33;100996.36;;;4.97;83.65
25944;BME280;13742;49.306;8.636;2023-02-21T03:43:33;100999.22;;;4.98;83.83
25944;BME280;13742;49.306;8.636;2023-02-21T03:44:33;100997.78;;;4.95;84.16
25944;BME280;13742;49.306;8.636;2023-02-21T03:45:33;100999.86;;;4.96;84.14
25944;BME280;13742;49.306;8.636;2023-02-21T03:46:33;101000.12;;;4.95;83.97
25944;BME280;13742;49.306;8.636;2023-02-21T03:47:33;100995.55;;;4.93;83.41
25944;BME280;13742;49.306;8.636;2023-02-21T03:48:34;100996.14;;;4.93;83.11
25944;BME280;13742;49.306;8.636;2023-02-21T03:49:33;100995.28;;;4.92;83.02
25944;BME280;13742;49.306;8.636;2023-02-21T03:50:33;100998.51;;;4.92;82.84
25944;BME280;13742;49.306;8.636;2023-02-21T03:51:33;100998.45;;;4.94;83.43
25944;BME280;13742;49.306;8.636;2023-02-21T03:52:33;100994.63;;;4.95;83.43
25944;BME280;13742;49.306;8.636;2023-02-21T03:53:33;100997.44;;;4.96;83.69
25944;BME280;13742;49.306;8.636;2023-02-21T03:54:33;100994.98;;;4.96;83.51
25944;BME280;13742;49.306;8.636;2023-02-21T03:55:33;100991.95;;;4.97;83.53
25944;BME280;13742;49.306;8.636;2023-02-21T03:56:33;100993.08;;;4.95;83.36
25944;BME280;13742;49.306;8.636;2023-02-21T03:57:33;100992.75;;;4.95;83.32
25944;BME280;13742;49.306;8.636;2023-02-21T03:58:33;100990.52;;;4.94;83.17
25944;BME280;13742;49.306;8.636;2023-02-21T03:59:33;100992.82;;;4.93;82.77
25944;BME280;13742;49.306;8.636;2023-02-21T04:00:33;100990.52;;;4.94;83.49
25944;BME280;13742;49.306;8.636;2023-02-21T04:01:33;100995.34;;;4.94;83.96
25944;BME280;13742;49.306;8.636;2023-02-21T04:02:33;100992.11;;;4.90;84.13
25944;BME280;13742;49.306;8.636;2023-02-21T04:03:33;100999.87;;;4.88;84.69
25944;BME280;13742;49.306;8.636;2023-02-21T04:04:33;100999.38;;;4.85;84.55
25944;BME280;13742;49.306;8.636;2023-02-21T04:05:33;100994.34;;;4.86;84.61
25944;BME280;13742;49.306;8.636;2023-02-21T04:06:33;100993.44;;;4.86;84.35
25944;BME280;13742;49.306;8.636;2023-02-21T04:07:33;100992.50;;;4.85;84.64
25944;BME280;13742;49.306;8.636;2023-02-21T04:08:33;100991.38;;;4.83;84.67
25944;BME280;13742;49.306;8.636;2023-02-21T04:09:33;100991.82;;;4.81;84.37
25944;BME280;13742;49.306;8.636;2023-02-21T04:10:33;100989.31;;;4.78;84.98
25944;BME280;13742;49.306;8.636;2023-02-21T04:11:33;100994.84;;;4.78;85.12
25944;BME280;13742;49.306;8.636;2023-02-21T04:12:33;100988.02;;;4.77;84.72
25944;BME280;13742;49.306;8.636;2023-02-21T04:13:33;100986.55;;;4.77;84.83
25944;BME280;13742;49.306;8.636;2023-02-21T04:14:33;100984.80;;;4.76;84.37
25944;BME280;13742;49.306;8.636;2023-02-21T04:15:33;100985.67;;;4.75;84.33
25944;BME280;13742;49.306;8.636;2023-02-21T04:16:33;100985.33;;;4.76;84.69
25944;BME280;13742;49.306;8.636;2023-02-21T04:17:33;100984.45;;;4.77;84.58
25944;BME280;13742;49.306;8.636;2023-02-21T04:18:33;100983.58;;;4.75;84.01
25944;BME280;13742;49.306;8.636;2023-02-21T04:19:33;100982.67;;;4.76;84.69
25944;BME280;13742;49.306;8.636;2023-02-21T04:20:33;100984.69;;;4.75;84.55
25944;BME280;13742;49.306;8.636;2023-02-21T04:21:33;100982.72;;;4.75;84.44
25944;BME280;13742;49.306;8.636;2023-02-21T04:22:33;100984.95;;;4.73;84.63
25944;BME280;13742;49.306;8.636;2023-02-21T04:23:33;100985.23;;;4.73;84.52
25944;BME280;13742;49.306;8.636;2023-02-21T04:24:33;100982.38;;;4.73;84.55
25944;BME280;13742;49.306;8.636;2023-02-21T04:25:33;100980.22;;;4.72;84.46
25944;BME280;13742;49.306;8.636;2023-02-21T04:26:33;100980.92;;;4.72;84.14
25944;BME280;13742;49.306;8.636;2023-02-21T04:27:33;100982.43;;;4.72;84.05
25944;BME280;13742;49.306;8.636;2023-02-21T04:28:33;100980.76;;;4.72;83.76
25944;BME280;13742;49.306;8.636;2023-02-21T04:29:33;100982.10;;;4.72;83.65
25944;BME280;13742;49.306;8.636;2023-02-21T04:30:33;100981.37;;;4.72;83.72
25944;BME280;13742;49.306;8.636;2023-02-21T04:31:33;100980.44;;;4.71;83.34
25944;BME280;13742;49.306;8.636;2023-02-21T04:32:33;100977.23;;;4.69;83.16
25944;BME280;13742;49.306;8.636;2023-02-21T04:33:33;100977.38;;;4.70;83.12
25944;BME280;13742;49.306;8.636;2023-02-21T04:34:33;100971.75;;;4.69;83.09
25944;BME280;13742;49.306;8.636;2023-02-21T04:35:33;100971.83;;;4.69;83.15
25944;BME280;13742;49.306;8.636;2023-02-21T04:36:33;100970.52;;;4.69;82.99
25944;BME280;13742;49.306;8.636;2023-02-21T04:37:33;100973.99;;;4.70;82.93
25944;BME280;13742;49.306;8.636;2023-02-21T04:38:33;100974.15;;;4.70;83.14
25944;BME280;13742;49.306;8.636;2023-02-21T04:39:33;100977.16;;;4.72;83.77
25944;BME280;13742;49.306;8.636;2023-02-21T04:40:33;100974.74;;;4.72;83.61
25944;BME280;13742;49.306;8.636;2023-02-21T04:41:33;100977.70;;;4.74;84.43
25944;BME280;13742;49.306;8.636;2023-02-21T04:42:33;100980.92;;;4.72;84.23
25944;BME280;13742;49.306;8.636;2023-02-21T04:43:33;100978.80;;;4.68;84.85
25944;BME280;13742;49.306;8.636;2023-02-21T04:44:33;100982.20;;;4.60;85.38
25944;BME280;13742;49.306;8.636;2023-02-21T04:45:33;100983.80;;;4.58;85.66
25944;BME280;13742;49.306;8.636;2023-02-21T04:46:33;100982.48;;;4.60;85.78
25944;BME280;13742;49.306;8.636;2023-02-21T04:47:33;100981.95;;;4.60;85.70
25944;BME280;13742;49.306;8.636;2023-02-21T04:48:33;100983.67;;;4.60;85.36
25944;BME280;13742;49.306;8.636;2023-02-21T04:49:33;100981.06;;;4.59;85.23
25944;BME280;13742;49.306;8.636;2023-02-21T04:50:33;100982.77;;;4.59;85.21
25944;BME280;13742;49.306;8.636;2023-02-21T04:51:33;100984.88;;;4.58;84.84
25944;BME280;13742;49.306;8.636;2023-02-21T04:52:33;100981.82;;;4.57;84.41
25944;BME280;13742;49.306;8.636;2023-02-21T04:53:33;100985.05;;;4.56;84.34
25944;BME280;13742;49.306;8.636;2023-02-21T04:54:33;100978.88;;;4.54;84.18
25944;BME280;13742;49.306;8.636;2023-02-21T04:55:33;100980.17;;;4.54;83.86
25944;BME280;13742;49.306;8.636;2023-02-21T04:56:33;100978.33;;;4.55;84.21
25944;BME280;13742;49.306;8.636;2023-02-21T04:57:33;100980.72;;;4.57;84.70
25944;BME280;13742;49.306;8.636;2023-02-21T04:58:33;100984.40;;;4.56;84.80
25944;BME280;13742;49.306;8.636;2023-02-21T04:59:33;100985.63;;;4.56;84.93
25944;BME280;13742;49.306;8.636;2023-02-21T05:00:33;100989.56;;;4.56;84.86
25944;BME280;13742;49.306;8.636;2023-02-21T05:01:33;100988.92;;;4.54;84.37
25944;BME280;13742;49.306;8.636;2023-02-21T05:02:33;100987.20;;;4.55;84.32
25944;BME280;13742;49.306;8.636;2023-02-21T05:03:33;100983.23;;;4.55;84.55
25944;BME280;13742;49.306;8.636;2023-02-21T05:04:34;100983.14;;;4.52;83.92
25944;BME280;13742;49.306;8.636;2023-02-21T05:05:33;100983.62;;;4.53;84.41
25944;BME280;13742;49.306;8.636;2023-02-21T05:06:33;100983.03;;;4.54;84.50
25944;BME280;13742;49.306;8.636;2023-02-21T05:07:33;100984.84;;;4.54;84.49
25944;BME280;13742;49.306;8.636;2023-02-21T05:08:34;100987.20;;;4.54;84.57
25944;BME280;13742;49.306;8.636;2023-02-21T05:09:33;100983.14;;;4.52;84.02
25944;BME280;13742;49.306;8.636;2023-02-21T05:10:33;100984.14;;;4.50;83.77
25944;BME280;13742;49.306;8.636;2023-02-21T05:11:33;100979.29;;;4.49;83.58
25944;BME280;13742;49.306;8.636;2023-02-21T05:12:33;100975.22;;;4.47;83.54
25944;BME280;13742;49.306;8.636;2023-02-21T05:13:33;100975.14;;;4.47;83.38
25944;BME280;13742;49.306;8.636;2023-02-21T05:14:33;100977.19;;;4.47;83.32
25944;BME280;13742;49.306;8.636;2023-02-21T05:15:33;100979.80;;;4.47;83.41
25944;BME280;13742;49.306;8.636;2023-02-21T05:16:33;100985.24;;;4.50;83.93
25944;BME280;13742;49.306;8.636;2023-02-21T05:17:33;100977.88;;;4.51;84.13
25944;BME280;13742;49.306;8.636;2023-02-21T05:18:33;100981.39;;;4.51;84.10
25944;BME280;13742;49.306;8.636;2023-02-21T05:19:33;100980.41;;;4.51;83.81
25944;BME280;13742;49.306;8.636;2023-02-21T05:20:33;100981.71;;;4.51;84.10
25944;BME280;13742;49.306;8.636;2023-02-21T05:21:33;100979.91;;;4.51;84.03
25944;BME280;13742;49.306;8.636;2023-02-21T05:22:33;100979.95;;;4.52;84.01
25944;BME280;13742;49.306;8.636;2023-02-21T05:23:34;100978.45;;;4.54;84.54
25944;BME280;13742;49.306;8.636;2023-02-21T05:24:33;100969.89;;;4.60;86.69
25944;BME280;13742;49.306;8.636;2023-02-21T05:25:33;100971.57;;;4.63;87.13
25944;BME280;13742;49.306;8.636;2023-02-21T05:26:35;100971.91;;;4.62;85.92
25944;BME280;13742;49.306;8.636;2023-02-21T05:27:33;100971.27;;;4.60;85.18
25944;BME280;13742;49.306;8.636;2023-02-21T05:28:33;100971.63;;;4.59;84.73
25944;BME280;13742;49.306;8.636;2023-02-21T05:29:33;100972.01;;;4.57;84.42
25944;BME280;13742;49.306;8.636;2023-02-21T05:30:33;100972.34;;;4.57;84.58
25944;BME280;13742;49.306;8.636;2023-02-21T05:31:33;100970.86;;;4.57;84.58
25944;BME280;13742;49.306;8.636;2023-02-21T05:32:33;100977.73;;;4.56;84.76
25944;BME280;13742;49.306;8.636;2023-02-21T05:33:33;100976.81;;;4.54;84.81
25944;BME280;13742;49.306;8.636;2023-02-21T05:34:33;100976.03;;;4.48;85.34
25944;BME280;13742;49.306;8.636;2023-02-21T05:35:33;100978.53;;;4.43;85.88
25944;BME280;13742;49.306;8.636;2023-02-21T05:36:33;100975.48;;;4.45;86.14
25944;BME280;13742;49.306;8.636;2023-02-21T05:37:33;100974.55;;;4.45;85.71
25944;BME280;13742;49.306;8.636;2023-02-21T05:38:33;100971.84;;;4.45;85.15
25944;BME280;13742;49.306;8.636;2023-02-21T05:39:33;100971.62;;;4.44;84.80
25944;BME280;13742;49.306;8.636;2023-02-21T05:40:33;100968.80;;;4.44;85.07
25944;BME280;13742;49.306;8.636;2023-02-21T05:41:34;100970.73;;;4.43;84.80
25944;BME280;13742;49.306;8.636;2023-02-21T05:42:33;100972.83;;;4.45;85.60
25944;BME280;13742;49.306;8.636;2023-02-21T05:43:33;100973.41;;;4.45;85.89
25944;BME280;13742;49.306;8.636;2023-02-21T05:44:33;100976.56;;;4.44;85.49
25944;BME280;13742;49.306;8.636;2023-02-21T05:45:33;100974.35;;;4.44;86.01
25944;BME280;13742;49.306;8.636;2023-02-21T05:46:33;100974.21;;;4.42;85.73
25944;BME280;13742;49.306;8.636;2023-02-21T05:47:33;100973.24;;;4.41;85.28